KCEC/CEC METAR and TAF weather

Enter ICAO airport designator
Station Type Date Time Source
KCEC METAR 2022/11/27 09:04 UTC NOAA

KCEC 270904Z AUTO 01004KT 3SM BR CLR 07/05 A3022 RMK AO2 T00720050 $


Station Type Date Time Source
KCEC Decoded METAR 2022/11/27 09:04 UTC NOAA

CRESCENT CITY MC NAMARA, CA, United States (KCEC) 41-47N 124-14W
Nov 27, 2022 - 04:04 AM EST / 2022.11.27 0904 UTC
Wind: from the N (010 degrees) at 5 MPH (4 KT):0
Visibility: 3 mile(s):0
Sky conditions: clear
Weather: mist
Temperature: 45.0 F (7.2 C)
Dew Point: 41.0 F (5.0 C)
Relative Humidity: 85%
Pressure (altimeter): 30.22 in. Hg (1023 hPa)
ob: KCEC 270904Z AUTO 01004KT 3SM BR CLR 07/05 A3022 RMK AO2 T00720050
cycle: 9

Station Type Date Time Source
KCEC TAF 2022/11/27 07:48 UTC NOAA

TAF
AMD KCEC 270645Z 2707/2806 36006KT 6SM BR HZ FEW200
TEMPO 2707/2710 3SM BR
FM271200 02005KT 4SM BR BKN150
FM271800 32008KT 5SM HZ SCT060 OVC080
FM272200 33008KT 5SM HZ SCT030 BKN050 OVC070
FM280100 VRB05KT 4SM BR SCT008 BKN015 OVC025

Example: see airport list